PROFILE

 METAR AND TAF INFORMATION
ADDS - METARS form results

(0744 UTC 19 August 2019)
http://aviationweather.gov/metar/data/
 
PASN 190653Z AUTO A3018 RMK AO2 SLP222 PWINO FZRANO TSNO $
PASN 190528Z 1906/2006 03010KT P6SM SCT200 AMD NOT SKED 

 AIRPORT MAP

 RUNWAY INFORMATION
Runway 18 Runway length 6500 ft Runway width 150 ft
Runway elevation 63 ft Runway displaced threshold 0 ft Runway heading 190
Runway 36 Runway length 6500 ft Runway width 150 ft
Runway elevation 36 ft Runway displaced threshold 0 ft Runway heading 10

 AIRPORT FREQUENCIES
Type ASOS Name ASOS Frequency 135.75 MHZ
Type CNTR Name ANCHORAGE Frequency 119.1 MHZ
Type CTAF Name CTAF Frequency 122.3 MHZ
Type FSS Name COLD BAY R Frequency 122.45 MHZ
Type MISC Name NWS OBSVR Frequency 122 MHZ

 AIRPORT NEAR NAVIGATION AIDS
Type NDB-DME Name Saint Paul Island Frequency 314 KHZ